Time;durP1;ratioP1;P1;durP2;ratioP2;P2;SDS_P1;SDS_P2;PMS_P1;PMS_P2;Temp;Humidity;BMP_temperature;BMP_pressure;BME280_temperature;BME280_humidity;BME280_pressure;Samples;Min_cycle;Max_cycle;Signal;HPM_P1;HPM_P2
2021/07/08 00:01:39;;;;;;;9.07;4.60;;;;;;;17.44;70.71;100722.78;10310273;28;21435;-74
2021/07/08 00:06:42;;;;;;;6.70;4.00;;;;;;;17.07;71.53;100734.75;10311354;28;20243;-74
2021/07/08 00:11:45;;;;;;;8.73;4.65;;;;;;;16.90;72.78;100743.78;10310444;28;21517;-74
2021/07/08 00:16:49;;;;;;;9.57;4.90;;;;;;;16.93;72.99;100730.75;10312432;28;20243;-75
2021/07/08 00:21:52;;;;;;;7.32;4.93;;;;;;;17.17;72.80;100746.41;10311209;28;20231;-74
2021/07/08 00:26:55;;;;;;;6.85;4.13;;;;;;;17.27;72.17;100734.56;10312684;28;20239;-73
2021/07/08 00:32:01;;;;;;;6.82;4.55;;;;;;;17.30;71.86;100731.53;10312880;28;20242;-74
2021/07/08 00:37:04;;;;;;;9.50;4.53;;;;;;;17.25;71.88;100746.44;10307316;28;20925;-74
2021/07/08 00:42:07;;;;;;;8.90;4.72;;;;;;;16.32;73.81;100767.63;10312320;28;20657;-73
2021/07/08 00:47:12;;;;;;;7.60;4.65;;;;;;;16.59;74.12;100747.75;10312453;28;20241;-73
2021/07/08 00:52:15;;;;;;;9.70;5.63;;;;;;;16.84;73.98;100745.25;10312338;28;20398;-73
2021/07/08 00:57:18;;;;;;;10.27;5.22;;;;;;;16.91;73.17;100754.47;10310891;28;20243;-73
2021/07/08 01:02:24;;;;;;;8.18;5.75;;;;;;;17.04;73.06;100744.06;10309664;28;20712;-73
2021/07/08 01:07:28;;;;;;;8.68;5.28;;;;;;;17.13;73.06;100747.72;10312456;28;20874;-73
2021/07/08 01:12:30;;;;;;;7.88;5.00;;;;;;;17.07;72.80;100750.19;10311052;28;20235;-73
2021/07/08 01:17:35;;;;;;;8.10;5.35;;;;;;;17.05;72.92;100747.63;10310380;28;20239;-73
2021/07/08 01:22:40;;;;;;;8.75;5.22;;;;;;;17.04;72.77;100735.06;10311174;28;20242;-73
2021/07/08 01:27:44;;;;;;;8.63;5.03;;;;;;;16.92;72.98;100739.91;10308912;28;20249;-73
2021/07/08 01:32:47;;;;;;;9.52;6.00;;;;;;;16.92;73.13;100734.47;10310709;28;20235;-73
2021/07/08 01:37:53;;;;;;;8.93;5.32;;;;;;;17.02;73.03;100729.78;10309891;28;20254;-73
2021/07/08 01:42:56;;;;;;;9.30;5.78;;;;;;;17.02;72.74;100728.94;10307175;28;20243;-73
2021/07/08 01:48:00;;;;;;;8.63;5.70;;;;;;;17.05;72.98;100728.63;10311660;28;20838;-73
2021/07/08 01:53:05;;;;;;;10.10;5.78;;;;;;;17.08;72.92;100716.59;10311165;28;20625;-73
2021/07/08 01:58:08;;;;;;;8.20;5.20;;;;;;;17.13;72.92;100726.00;10310297;28;20238;-73
2021/07/08 02:03:10;;;;;;;8.85;5.68;;;;;;;17.10;72.71;100737.13;10310249;28;20768;-73
2021/07/08 02:08:15;;;;;;;8.65;5.45;;;;;;;16.97;72.60;100734.81;10309504;28;20231;-73
2021/07/08 02:13:18;;;;;;;7.05;5.70;;;;;;;16.90;72.79;100733.78;10307345;28;20277;-73
2021/07/08 02:18:21;;;;;;;10.82;5.63;;;;;;;16.86;73.01;100737.78;10308188;28;20269;-73
2021/07/08 02:23:25;;;;;;;10.13;5.68;;;;;;;16.79;73.05;100736.72;10309306;28;20614;-74
2021/07/08 02:28:28;;;;;;;10.15;6.22;;;;;;;16.68;73.52;100745.13;10309313;28;20905;-73
2021/07/08 02:33:32;;;;;;;8.93;5.93;;;;;;;16.59;73.83;100749.59;10309810;28;20238;-73
2021/07/08 02:38:37;;;;;;;10.25;6.18;;;;;;;16.57;74.35;100749.75;10307655;28;20731;-73
2021/07/08 02:43:40;;;;;;;13.02;6.22;;;;;;;16.50;74.36;100743.22;10308669;28;22034;-73
2021/07/08 02:48:43;;;;;;;8.48;6.72;;;;;;;16.51;74.28;100747.66;10307249;28;20243;-73
2021/07/08 02:53:47;;;;;;;8.35;6.07;;;;;;;16.35;74.69;100747.50;10308164;28;20243;-73
2021/07/08 02:58:50;;;;;;;12.20;6.22;;;;;;;16.28;74.95;100746.41;10306901;28;21394;-74
2021/07/08 03:03:53;;;;;;;8.98;6.43;;;;;;;16.21;74.94;100748.84;10314809;28;20235;-73
2021/07/08 03:08:57;;;;;;;13.68;6.32;;;;;;;16.14;74.84;100748.59;10313871;28;20246;-73
2021/07/08 03:14:00;;;;;;;11.63;6.35;;;;;;;16.12;74.72;100742.47;10316123;28;20621;-73
2021/07/08 03:19:03;;;;;;;10.15;6.07;;;;;;;16.06;74.31;100745.78;10313566;28;20227;-73
2021/07/08 03:24:08;;;;;;;11.55;6.03;;;;;;;16.07;74.94;100741.22;10313939;28;20231;-73
2021/07/08 03:29:10;;;;;;;9.70;6.13;;;;;;;16.02;74.90;100746.25;10312712;28;20243;-73
2021/07/08 03:34:13;;;;;;;10.10;6.00;;;;;;;16.00;75.07;100764.50;10311406;28;20269;-73
2021/07/08 03:39:18;;;;;;;8.90;6.07;;;;;;;16.01;75.29;100775.19;10312086;28;20736;-73
2021/07/08 03:44:21;;;;;;;10.90;6.68;;;;;;;16.01;75.07;100772.47;10313513;28;20818;-73
2021/07/08 03:49:24;;;;;;;13.27;6.25;;;;;;;16.00;75.42;100765.34;10313071;28;20235;-73
2021/07/08 03:54:28;;;;;;;14.00;6.72;;;;;;;16.04;74.90;100768.59;10313446;28;20943;-72
2021/07/08 03:59:31;;;;;;;10.88;6.03;;;;;;;16.12;74.71;100766.00;10312715;28;20751;-72
2021/07/08 04:04:38;;;;;;;8.88;5.85;;;;;;;16.09;74.60;100775.28;10311609;28;20243;-73
2021/07/08 04:09:42;;;;;;;6.38;5.00;;;;;;;16.13;74.64;100779.41;10312934;28;20608;-72
2021/07/08 04:14:45;;;;;;;11.60;5.88;;;;;;;16.21;74.31;100777.78;10310941;28;20256;-72
2021/07/08 04:19:48;;;;;;;10.85;5.80;;;;;;;16.19;74.22;100783.38;10311010;28;20249;-73
2021/07/08 04:24:53;;;;;;;9.25;5.75;;;;;;;16.26;74.32;100789.06;10311110;28;20235;-73
2021/07/08 04:29:56;;;;;;;11.55;6.43;;;;;;;16.35;74.13;100783.59;10310230;28;20239;-72
2021/07/08 04:34:58;;;;;;;10.40;5.78;;;;;;;16.41;73.89;100779.41;10311887;28;20262;-72
2021/07/08 04:40:03;;;;;;;9.25;5.68;;;;;;;16.53;73.45;100777.31;10310289;28;20223;-73
2021/07/08 04:45:08;;;;;;;13.80;5.72;;;;;;;16.59;72.98;100787.56;10311667;28;20267;-72
2021/07/08 04:50:15;;;;;;;7.50;5.18;;;;;;;16.65;73.06;100772.53;10309443;28;20238;-73
2021/07/08 04:55:21;;;;;;;8.43;5.10;;;;;;;16.77;72.35;100774.84;10309061;28;21418;-72
2021/07/08 05:00:25;;;;;;;10.50;5.20;;;;;;;16.69;71.96;100784.78;10310925;28;20227;-72
2021/07/08 05:05:28;;;;;;;9.40;5.07;;;;;;;16.69;72.50;100782.06;10310191;28;20235;-72
2021/07/08 05:10:33;;;;;;;9.27;5.78;;;;;;;16.78;72.31;100781.13;10309599;28;20617;-72
2021/07/08 05:15:36;;;;;;;13.68;6.20;;;;;;;16.92;72.14;100796.88;10308583;28;21404;-72
2021/07/08 05:20:40;;;;;;;12.15;5.72;;;;;;;16.96;72.07;100805.56;10308306;28;20227;-73
2021/07/08 05:25:45;;;;;;;13.82;6.68;;;;;;;17.11;71.59;100809.41;10307994;28;20247;-72
2021/07/08 05:30:47;;;;;;;14.82;6.53;;;;;;;17.28;71.37;100820.44;10309053;28;20246;-72
2021/07/08 05:35:50;;;;;;;12.13;6.38;;;;;;;17.48;70.55;100822.81;10309123;28;20242;-72
2021/07/08 05:40:55;;;;;;;16.17;7.60;;;;;;;17.63;69.88;100817.63;10307729;28;20226;-71
2021/07/08 05:45:57;;;;;;;11.30;6.25;;;;;;;17.80;68.19;100826.75;10308527;28;20742;-70
2021/07/08 05:51:01;;;;;;;9.73;5.38;;;;;;;18.08;67.35;100821.16;10308103;28;20620;-72
2021/07/08 05:56:05;;;;;;;10.50;5.10;;;;;;;18.41;66.98;100838.44;10307035;28;20241;-71
2021/07/08 06:01:08;;;;;;;6.03;4.68;;;;;;;18.83;65.62;100823.94;10310437;28;20238;-73
2021/07/08 06:06:11;;;;;;;8.55;4.18;;;;;;;19.04;63.78;100820.75;10307532;28;20274;-71
2021/07/08 06:11:16;;;;;;;8.98;4.40;;;;;;;19.10;63.86;100835.56;10309545;28;20742;-71
2021/07/08 06:16:19;;;;;;;6.32;4.00;;;;;;;19.19;63.47;100838.09;10307157;28;20802;-71
2021/07/08 06:21:24;;;;;;;8.93;5.03;;;;;;;19.30;63.36;100844.22;10307303;28;20786;-71
2021/07/08 06:26:28;;;;;;;8.27;4.50;;;;;;;19.44;62.52;100840.81;10309264;28;20238;-71
2021/07/08 06:31:31;;;;;;;6.60;3.72;;;;;;;19.65;61.66;100827.53;10306606;28;20241;-70
2021/07/08 06:36:34;;;;;;;11.50;4.90;;;;;;;19.86;61.20;100816.09;10306822;28;20324;-71
2021/07/08 06:41:38;;;;;;;5.88;3.97;;;;;;;19.79;61.87;100830.56;10305451;28;20249;-72
2021/07/08 06:46:43;;;;;;;9.10;5.13;;;;;;;19.65;62.91;100823.97;10307446;28;20235;-72
2021/07/08 06:51:46;;;;;;;8.88;4.78;;;;;;;19.75;62.56;100830.09;10305555;28;20648;-71
2021/07/08 06:56:50;;;;;;;8.50;4.80;;;;;;;20.12;61.48;100834.06;10304629;28;20348;-71
2021/07/08 07:01:53;;;;;;;9.70;5.13;;;;;;;20.38;59.20;100842.00;10308785;28;20239;-71
2021/07/08 07:06:56;;;;;;;11.15;5.78;;;;;;;20.62;59.40;100849.19;10305927;28;20756;-71
2021/07/08 07:12:00;;;;;;;8.27;4.93;;;;;;;20.40;58.80;100841.81;10306823;28;20239;-71
2021/07/08 07:17:04;;;;;;;8.43;5.32;;;;;;;20.12;59.04;100850.41;10305713;28;20317;-72
2021/07/08 07:22:06;;;;;;;9.13;4.82;;;;;;;20.34;58.92;100844.22;10304528;28;20242;-71
2021/07/08 07:27:11;;;;;;;8.80;4.25;;;;;;;20.34;58.01;100851.56;10305585;28;20309;-73
2021/07/08 07:32:14;;;;;;;7.10;4.68;;;;;;;20.44;57.49;100860.38;10305467;28;20594;-70
2021/07/08 07:37:17;;;;;;;8.48;4.30;;;;;;;20.87;56.63;100858.09;10305765;28;20231;-71
2021/07/08 07:42:21;;;;;;;11.15;4.40;;;;;;;21.78;55.34;100863.72;10308905;28;20227;-71
2021/07/08 07:47:27;;;;;;;7.00;4.25;;;;;;;22.24;54.23;100880.84;10307620;28;20254;-71
2021/07/08 07:52:30;;;;;;;5.03;4.07;;;;;;;22.52;53.22;100874.69;10313340;28;20235;-71
2021/07/08 07:57:35;;;;;;;7.47;4.60;;;;;;;22.22;53.10;100891.09;10311492;28;20246;-71
2021/07/08 08:02:39;;;;;;;5.95;4.13;;;;;;;23.06;52.71;100887.09;10312515;28;20288;-71
2021/07/08 08:13:04;;;;;;;6.40;4.03;;;;;;;23.84;50.40;100890.81;10310424;28;20242;-70
2021/07/08 08:18:07;;;;;;;7.18;4.40;;;;;;;23.42;49.94;100892.53;10311719;28;20739;-71
2021/07/08 08:23:11;;;;;;;5.05;4.22;;;;;;;23.77;49.17;100901.72;10311227;28;20227;-71
2021/07/08 08:28:15;;;;;;;7.18;4.60;;;;;;;23.50;49.19;100888.81;10310388;28;20361;-71
2021/07/08 08:33:19;;;;;;;7.63;4.20;;;;;;;23.53;50.22;100891.16;10310219;28;20231;-71
2021/07/08 08:38:22;;;;;;;6.90;3.97;;;;;;;24.15;47.34;100870.34;10310020;28;20235;-70
2021/07/08 08:43:26;;;;;;;5.63;3.75;;;;;;;23.55;49.30;100872.63;10313311;28;20238;-71
2021/07/08 08:48:29;;;;;;;6.38;4.10;;;;;;;23.94;50.11;100861.13;10310990;28;20345;-73
2021/07/08 08:53:32;;;;;;;7.93;4.30;;;;;;;23.99;49.75;100857.78;10309202;28;21436;-73
2021/07/08 08:58:37;;;;;;;7.80;3.63;;;;;;;24.15;48.91;100862.09;10309605;28;20254;-74
2021/07/08 09:03:40;;;;;;;6.85;3.63;;;;;;;25.48;45.78;100854.28;10308640;28;20238;-73
2021/07/08 09:08:45;;;;;;;5.18;3.40;;;;;;;26.34;43.52;100858.84;10309852;28;20247;-73
2021/07/08 09:14:00;;;;;;;5.82;3.38;;;;;;;26.66;42.87;100855.13;10309494;28;20231;-74
2021/07/08 09:19:10;;;;;;;8.40;3.38;;;;;;;26.50;40.07;100863.88;10308015;28;20242;-73
2021/07/08 09:24:18;;;;;;;7.75;3.47;;;;;;;26.77;42.24;100864.59;10309423;28;20243;-74
2021/07/08 09:29:24;;;;;;;7.95;3.90;;;;;;;27.23;41.63;100873.66;10308238;28;20647;-73
2021/07/08 09:34:29;;;;;;;7.78;4.07;;;;;;;27.16;41.50;100869.03;10310824;28;20246;-74
2021/07/08 09:39:34;;;;;;;7.47;3.75;;;;;;;27.45;39.91;100877.75;10310463;28;20234;-73
2021/07/08 09:44:39;;;;;;;6.38;3.92;;;;;;;26.42;41.56;100888.91;10307805;28;20237;-73
2021/07/08 09:49:45;;;;;;;6.75;3.80;;;;;;;26.99;40.86;100886.31;10309116;28;20238;-73
2021/07/08 10:00:33;;;;;;;7.10;3.33;;;;;;;27.24;39.67;100887.25;10311616;28;20238;-73
2021/07/08 10:05:38;;;;;;;5.65;3.42;;;;;;;27.66;37.37;100872.94;10310464;28;20245;-73
2021/07/08 10:10:42;;;;;;;3.60;2.97;;;;;;;27.68;37.52;100862.53;10308043;28;20750;-74
2021/07/08 10:15:50;;;;;;;5.22;3.00;;;;;;;26.33;38.11;100859.91;10308069;28;20242;-74
2021/07/08 10:20:55;;;;;;;4.50;3.00;;;;;;;25.95;39.40;100844.97;10309338;28;20239;-74
2021/07/08 10:25:58;;;;;;;4.88;2.70;;;;;;;26.86;36.38;100832.16;10306837;28;20227;-74
2021/07/08 10:31:17;;;;;;;5.60;3.08;;;;;;;27.83;36.34;100836.22;10307956;28;20866;-74
2021/07/08 10:36:30;;;;;;;3.63;2.45;;;;;;;28.41;35.68;100829.44;10308919;28;20238;-74
2021/07/08 10:41:44;;;;;;;2.60;2.40;;;;;;;27.75;33.14;100830.16;10308333;28;20227;-74
2021/07/08 10:46:49;;;;;;;3.67;2.30;;;;;;;27.80;34.05;100816.53;10308068;28;20246;-75
2021/07/08 10:51:52;;;;;;;3.50;2.40;;;;;;;28.39;32.03;100828.84;10309056;28;20258;-74
2021/07/08 10:56:55;;;;;;;3.10;2.28;;;;;;;28.30;34.24;100818.31;10308555;28;20716;-75
2021/07/08 11:02:00;;;;;;;3.40;1.90;;;;;;;28.27;31.53;100816.88;10308115;28;20247;-75
2021/07/08 11:07:14;;;;;;;2.17;1.90;;;;;;;29.57;31.17;100813.47;10306789;28;20368;-75
2021/07/08 11:12:29;;;;;;;3.10;2.00;;;;;;;29.73;29.55;100800.84;10307291;28;20231;-75
2021/07/08 11:17:40;;;;;;;3.63;2.55;;;;;;;29.08;33.36;100800.91;10307114;28;20233;-76
2021/07/08 11:22:43;;;;;;;2.90;1.92;;;;;;;28.78;32.66;100800.91;10309272;28;20231;-75
2021/07/08 11:27:47;;;;;;;3.95;2.20;;;;;;;29.99;32.25;100790.34;10313499;28;20245;-75
2021/07/08 11:32:54;;;;;;;2.38;2.17;;;;;;;30.02;30.20;100774.06;10315147;28;20664;-75
2021/07/08 11:38:01;;;;;;;3.90;2.33;;;;;;;31.42;29.76;100778.38;10314306;28;20239;-75
2021/07/08 11:43:16;;;;;;;5.82;2.25;;;;;;;30.23;30.09;100763.47;10312159;28;20613;-74
2021/07/08 11:48:29;;;;;;;3.65;2.20;;;;;;;29.78;31.86;100753.88;10313363;28;20239;-75
2021/07/08 11:53:33;;;;;;;3.10;1.95;;;;;;;29.22;31.49;100749.81;10311254;28;20604;-75
2021/07/08 11:58:37;;;;;;;2.72;2.08;;;;;;;30.58;30.80;100737.50;10310411;28;20243;-75
2021/07/08 12:03:44;;;;;;;2.70;2.20;;;;;;;31.81;28.74;100736.75;10315292;28;20234;-75
2021/07/08 12:08:53;;;;;;;2.75;1.73;;;;;;;31.99;28.17;100737.25;10313757;28;20873;-76
2021/07/08 12:13:58;;;;;;;3.35;2.15;;;;;;;33.12;27.41;100741.22;10310487;28;20238;-75
2021/07/08 12:19:04;;;;;;;2.38;1.88;;;;;;;33.13;25.72;100734.53;10313554;28;20238;-76
2021/07/08 12:24:09;;;;;;;4.28;1.90;;;;;;;31.17;28.22;100734.41;10314370;28;20265;-76
2021/07/08 12:29:20;;;;;;;2.65;1.83;;;;;;;31.33;30.85;100725.22;10314404;28;20242;-77
2021/07/08 12:34:33;;;;;;;1.90;1.80;;;;;;;31.76;25.78;100726.41;10309521;28;20234;-76
2021/07/08 12:39:39;;;;;;;2.75;1.73;;;;;;;31.20;25.68;100714.47;10328075;28;20284;-76
2021/07/08 12:44:43;;;;;;;3.83;1.60;;;;;;;30.50;26.37;100727.69;10310415;28;20226;-76
2021/07/08 12:49:49;;;;;;;1.70;1.60;;;;;;;29.74;27.13;100726.94;10312665;28;20238;-76
2021/07/08 12:54:52;;;;;;;3.17;1.80;;;;;;;28.99;28.35;100722.09;10308045;28;20333;-76
2021/07/08 12:59:57;;;;;;;3.58;1.80;;;;;;;31.25;27.38;100722.88;10268870;28;20254;-76
2021/07/08 13:05:05;;;;;;;3.72;2.08;;;;;;;31.73;27.00;100711.13;10271575;28;20239;-76
2021/07/08 13:10:10;;;;;;;1.88;1.75;;;;;;;31.40;26.96;100706.44;10270454;28;20247;-76
2021/07/08 13:15:23;;;;;;;1.70;1.60;;;;;;;30.92;27.50;100707.91;10270177;28;20275;-76
2021/07/08 13:20:28;;;;;;;2.53;1.55;;;;;;;31.70;26.79;100708.00;10268965;28;20284;-76
2021/07/08 13:25:32;;;;;;;2.10;1.70;;;;;;;30.46;27.54;100712.63;10269570;28;20255;-76
2021/07/08 13:30:37;;;;;;;1.63;1.52;;;;;;;30.13;27.80;100713.38;10271032;28;20240;-75
2021/07/08 13:35:49;;;;;;;1.88;1.75;;;;;;;28.87;30.41;100716.56;10269459;28;20694;-76
2021/07/08 13:41:07;;;;;;;2.97;1.90;;;;;;;28.50;32.27;100720.28;10270756;28;21954;-76
2021/07/08 13:46:18;;;;;;;3.42;2.05;;;;;;;28.88;32.08;100712.69;10269072;28;20235;-72
2021/07/08 13:51:23;;;;;;;2.55;1.95;;;;;;;28.90;33.35;100719.69;10279667;28;21380;-72
2021/07/08 13:56:26;;;;;;;3.72;2.33;;;;;;;28.66;34.55;100706.91;10308858;28;20242;-73
2021/07/08 14:01:29;;;;;;;3.13;1.83;;;;;;;28.40;33.21;100699.84;10308672;28;20650;-73
2021/07/08 14:06:34;;;;;;;2.55;1.90;;;;;;;28.22;35.23;100695.19;10309171;28;20231;-72
2021/07/08 14:11:38;;;;;;;2.70;1.77;;;;;;;27.69;34.88;100701.38;10309803;28;20381;-73
2021/07/08 14:16:41;;;;;;;3.08;1.90;;;;;;;26.93;39.08;100697.88;10306746;28;20239;-74
2021/07/08 14:21:46;;;;;;;6.57;2.72;;;;;;;25.90;38.25;100703.59;10306784;28;20242;-72
2021/07/08 14:26:49;;;;;;;4.25;2.40;;;;;;;25.13;38.70;100706.06;10307530;28;20239;-71
2021/07/08 14:31:52;;;;;;;13.55;3.97;;;;;;;23.90;41.75;100722.69;10309235;28;20235;-75
2021/07/08 14:36:56;;;;;;;19.98;3.95;;;;;;;23.38;43.33;100716.66;10308056;28;20246;-74
2021/07/08 14:42:01;;;;;;;14.40;3.83;;;;;;;22.55;46.24;100731.97;10302305;28;20234;-74
2021/07/08 14:47:06;;;;;;;6.93;3.13;;;;;;;22.36;48.37;100735.31;10310492;28;21401;-75
2021/07/08 14:52:14;;;;;;;4.68;3.10;;;;;;;22.13;49.26;100752.69;10308566;28;20724;-75
2021/07/08 14:57:16;;;;;;;6.18;3.60;;;;;;;21.32;51.63;100760.78;10306441;28;20266;-75
2021/07/08 15:02:19;;;;;;;9.93;3.67;;;;;;;21.30;51.43;100776.50;10309357;28;20238;-75
2021/07/08 15:07:24;;;;;;;6.53;3.60;;;;;;;21.73;51.89;100782.22;10307078;28;20296;-74
2021/07/08 15:12:27;;;;;;;7.60;4.25;;;;;;;20.31;73.57;100792.75;10308283;28;20234;-74
2021/07/08 15:17:30;;;;;;;4.43;3.72;;;;;;;18.99;92.67;100801.34;10306470;28;20243;-74
2021/07/08 15:22:34;;;;;;;5.15;3.30;;;;;;;18.30;94.55;100800.69;10308469;28;20243;-73
2021/07/08 15:27:37;;;;;;;6.32;4.40;;;;;;;17.80;86.55;100791.44;10310509;28;20365;-73
2021/07/08 15:32:41;;;;;;;8.20;5.50;;;;;;;17.85;64.04;100788.19;10339499;28;20731;-74
2021/07/08 15:37:45;;;;;;;11.23;6.05;;;;;;;-149.37;100.00;59372.97;10306892;28;20250;-74
2021/07/08 15:42:49;;;;;;;9.98;6.30;;;;;;;17.63;87.12;100803.19;10307441;28;20235;-75
2021/07/08 15:47:52;;;;;;;10.13;6.57;;;;;;;18.08;88.47;100813.84;10305140;28;20759;-74
2021/07/08 15:52:56;;;;;;;9.98;6.75;;;;;;;18.34;87.39;100830.06;10305201;28;20900;-75
2021/07/08 15:57:59;;;;;;;6.72;5.03;;;;;;;18.50;88.42;100825.72;10306755;28;20616;-74
2021/07/08 16:03:02;;;;;;;9.68;6.22;;;;;;;19.08;88.80;100818.53;10309157;28;20243;-74
2021/07/08 16:08:06;;;;;;;7.03;5.22;;;;;;;19.55;88.26;100831.44;10307966;28;20243;-74
2021/07/08 16:13:09;;;;;;;7.45;4.85;;;;;;;19.24;85.91;100834.88;10310833;28;21503;-74
2021/07/08 16:18:12;;;;;;;7.20;4.72;;;;;;;19.41;87.17;100836.56;10310103;28;20345;-74
2021/07/08 16:23:18;;;;;;;7.25;4.57;;;;;;;20.13;88.18;100841.22;10313660;28;20227;-75
2021/07/08 16:28:21;;;;;;;10.32;4.50;;;;;;;20.71;88.13;100844.56;10315931;28;20247;-75
2021/07/08 16:33:24;;;;;;;9.13;4.95;;;;;;;21.04;87.25;100842.50;10312558;28;20280;-74
2021/07/08 16:38:29;;;;;;;6.18;4.72;;;;;;;21.05;86.75;100830.53;10313250;28;20235;-74
2021/07/08 16:43:33;;;;;;;7.35;4.70;;;;;;;20.96;85.94;100824.25;10313760;28;20615;-74
2021/07/08 16:48:36;;;;;;;7.45;4.78;;;;;;;20.88;85.45;100832.50;10312637;28;20227;-74
2021/07/08 16:53:40;;;;;;;6.90;4.95;;;;;;;20.70;84.83;100826.47;10313750;28;20246;-75
2021/07/08 16:58:48;;;;;;;5.28;4.28;;;;;;;20.47;85.13;100829.16;10313173;28;20301;-72
2021/07/08 17:03:53;;;;;;;5.53;4.53;;;;;;;20.19;83.81;100815.97;10311950;28;20223;-75
2021/07/08 17:08:57;;;;;;;7.15;4.40;;;;;;;20.17;84.22;100801.66;10315676;28;20234;-74
2021/07/08 17:14:00;;;;;;;6.35;4.40;;;;;;;20.26;83.78;100816.94;10314026;28;20253;-74
2021/07/08 17:19:03;;;;;;;6.35;4.93;;;;;;;19.92;81.06;100825.44;10313603;28;20239;-74
2021/07/08 17:24:08;;;;;;;7.18;4.68;;;;;;;19.80;83.04;100821.38;10313527;28;20248;-74
2021/07/08 17:29:11;;;;;;;6.07;4.68;;;;;;;19.72;82.10;100818.66;10311516;28;20629;-73
2021/07/08 17:34:14;;;;;;;6.47;5.00;;;;;;;19.66;80.53;100826.53;10311485;28;20712;-74
2021/07/08 17:39:20;;;;;;;7.57;5.07;;;;;;;19.15;79.93;100846.78;10311053;28;20232;-74
2021/07/08 17:44:23;;;;;;;7.82;5.70;;;;;;;18.94;80.45;100834.50;10311975;28;20239;-73
2021/07/08 17:49:26;;;;;;;12.73;5.50;;;;;;;19.01;80.86;100840.16;10314541;28;20235;-73
2021/07/08 17:54:44;;;;;;;7.35;5.70;;;;;;;18.79;79.94;100850.66;10311080;28;20242;-72
2021/07/08 17:59:47;;;;;;;7.57;5.40;;;;;;;19.06;82.33;100848.66;10312861;28;20246;-73
2021/07/08 18:05:05;;;;;;;8.48;5.22;;;;;;;19.22;81.99;100851.38;10310636;28;20363;-73
2021/07/08 18:10:10;;;;;;;8.32;5.80;;;;;;;19.14;81.63;100861.41;10311197;28;20250;-73
2021/07/08 18:15:15;;;;;;;7.15;5.47;;;;;;;19.08;81.84;100848.47;10312260;28;21391;-74
2021/07/08 18:20:21;;;;;;;10.50;5.80;;;;;;;19.24;82.38;100852.06;10313211;28;20242;-73
2021/07/08 18:25:28;;;;;;;9.65;5.88;;;;;;;19.12;77.89;100856.16;10309979;28;20230;-73
2021/07/08 18:30:31;;;;;;;11.55;5.60;;;;;;;19.07;78.32;100849.50;10310359;28;20231;-73
2021/07/08 18:35:36;;;;;;;8.73;5.78;;;;;;;19.00;77.06;100858.31;10309166;28;20238;-73
2021/07/08 18:40:41;;;;;;;7.50;5.45;;;;;;;18.87;75.84;100855.28;10308799;28;20726;-73
2021/07/08 18:45:44;;;;;;;10.20;5.68;;;;;;;18.63;73.63;100856.03;10309113;28;20258;-73
2021/07/08 18:51:07;;;;;;;9.60;5.75;;;;;;;18.72;76.80;100848.72;10309742;28;20227;-73
2021/07/08 18:56:11;;;;;;;7.90;5.93;;;;;;;18.96;76.50;100850.69;10308007;28;20249;-73
2021/07/08 19:01:15;;;;;;;8.55;5.85;;;;;;;18.86;76.55;100839.94;10308101;28;20249;-73
2021/07/08 19:06:19;;;;;;;7.72;5.05;;;;;;;18.85;75.12;100842.84;10305017;28;20246;-73
2021/07/08 19:11:23;;;;;;;5.28;4.78;;;;;;;18.55;73.96;100842.41;10310988;28;20231;-73
2021/07/08 19:16:26;;;;;;;5.80;5.13;;;;;;;18.46;73.81;100844.25;10306711;28;20716;-73
2021/07/08 19:21:29;;;;;;;5.35;4.47;;;;;;;18.43;72.42;100852.75;10309994;28;20723;-72
2021/07/08 19:26:37;;;;;;;8.32;4.63;;;;;;;18.38;71.70;100848.81;10308425;28;20227;-74
2021/07/08 19:31:41;;;;;;;8.07;5.20;;;;;;;18.46;72.80;100844.25;10308794;28;20238;-73
2021/07/08 19:36:44;;;;;;;4.95;4.45;;;;;;;18.50;72.92;100861.94;10307554;28;20734;-74
2021/07/08 19:41:58;;;;;;;5.93;4.88;;;;;;;18.53;74.38;100877.06;10310193;28;20231;-72
2021/07/08 19:47:01;;;;;;;6.93;4.80;;;;;;;18.51;73.65;100900.84;10317146;28;20246;-73
2021/07/08 19:52:05;;;;;;;6.25;4.63;;;;;;;18.52;73.39;100910.75;10313786;28;20243;-72
2021/07/08 19:57:09;;;;;;;5.00;4.10;;;;;;;18.52;72.57;100897.13;10313618;28;20250;-74
2021/07/08 20:02:12;;;;;;;7.50;4.15;;;;;;;18.52;73.02;100884.38;10317317;28;20238;-74
2021/07/08 20:07:15;;;;;;;5.78;4.85;;;;;;;18.18;73.30;100892.53;10314747;28;20617;-74
2021/07/08 20:12:19;;;;;;;5.63;5.03;;;;;;;18.19;74.39;100901.56;10313769;28;20235;-76
2021/07/08 20:17:23;;;;;;;9.40;5.22;;;;;;;18.29;74.54;100905.88;10312985;28;20242;-74
2021/07/08 20:22:26;;;;;;;6.22;4.53;;;;;;;17.82;73.09;100899.94;10313651;28;20716;-75
2021/07/08 20:27:30;;;;;;;7.35;4.95;;;;;;;17.76;75.17;100896.00;10310367;28;20235;-74
2021/07/08 20:32:33;;;;;;;8.93;5.38;;;;;;;17.70;75.55;100886.63;10312923;28;20619;-73
2021/07/08 20:37:36;;;;;;;7.88;5.60;;;;;;;17.38;76.93;100889.06;10310002;28;20742;-73
2021/07/08 20:42:40;;;;;;;12.30;5.53;;;;;;;17.51;77.71;100894.97;10313395;28;20288;-74
2021/07/08 20:47:43;;;;;;;9.85;5.75;;;;;;;17.32;77.32;100879.69;10310899;28;20238;-74
2021/07/08 20:53:05;;;;;;;12.80;6.13;;;;;;;17.21;77.37;100890.81;10309311;28;20257;-73
2021/07/08 20:58:09;;;;;;;6.72;6.00;;;;;;;17.35;77.39;100887.53;10313243;28;20242;-73
2021/07/08 21:03:13;;;;;;;9.32;7.13;;;;;;;17.56;76.61;100892.63;10309961;28;20262;-74
2021/07/08 21:08:16;;;;;;;6.70;5.80;;;;;;;17.33;75.47;100875.13;10325524;28;20257;-74
2021/07/08 21:13:21;;;;;;;11.10;5.80;;;;;;;16.92;76.34;100888.25;10312482;28;20381;-75
2021/07/08 21:18:24;;;;;;;9.38;6.10;;;;;;;16.88;77.06;100895.03;10310841;28;20239;-74
2021/07/08 21:23:43;;;;;;;10.13;7.15;;;;;;;16.50;79.15;100891.53;10309363;28;20285;-75
2021/07/08 21:28:48;;;;;;;11.02;7.38;;;;;;;16.51;79.01;100883.25;10310316;28;20238;-74
2021/07/08 21:33:51;;;;;;;16.48;8.88;;;;;;;16.77;78.70;100885.22;10310640;28;20728;-75
2021/07/08 21:38:54;;;;;;;12.30;7.85;;;;;;;16.99;77.41;100884.78;10310320;28;20238;-74
2021/07/08 21:43:59;;;;;;;12.27;7.85;;;;;;;17.07;77.01;100885.88;10311791;28;20243;-75
2021/07/08 21:49:01;;;;;;;19.27;7.93;;;;;;;16.87;76.58;100898.75;10308215;28;20256;-74
2021/07/08 21:54:06;;;;;;;10.63;7.72;;;;;;;16.81;77.02;100895.63;10310048;28;20250;-74
2021/07/08 21:59:11;;;;;;;10.65;8.25;;;;;;;16.78;77.08;100900.50;10308452;28;20814;-74
2021/07/08 22:04:14;;;;;;;9.93;7.90;;;;;;;16.83;76.98;100905.47;10311187;28;20243;-74
2021/07/08 22:09:17;;;;;;;10.63;7.85;;;;;;;16.91;76.52;100909.13;10312469;28;20238;-75
2021/07/08 22:14:22;;;;;;;12.82;8.68;;;;;;;16.87;76.10;100896.03;10307729;28;20266;-73
2021/07/08 22:19:26;;;;;;;11.90;9.38;;;;;;;16.93;75.90;100906.28;10311918;28;20717;-75
2021/07/08 22:24:46;;;;;;;14.52;8.70;;;;;;;17.16;75.65;100902.13;10308720;28;20253;-75
2021/07/08 22:29:50;;;;;;;13.32;7.88;;;;;;;17.23;75.19;100896.94;10306799;28;20593;-74
2021/07/08 22:34:53;;;;;;;13.20;7.85;;;;;;;16.99;74.82;100890.22;10306381;28;20247;-74
2021/07/08 22:39:56;;;;;;;13.65;8.60;;;;;;;16.65;75.39;100890.03;10308945;28;20246;-74
2021/07/08 22:45:00;;;;;;;13.98;8.85;;;;;;;16.78;75.51;100892.34;10306662;28;20238;-74
2021/07/08 22:50:05;;;;;;;15.00;9.02;;;;;;;16.63;76.39;100883.03;10308168;28;20284;-74
2021/07/08 22:55:09;;;;;;;16.05;10.32;;;;;;;16.79;76.43;100877.81;10333662;28;20242;-75
2021/07/08 23:00:17;;;;;;;18.35;10.15;;;;;;;16.95;75.55;100877.97;10305512;28;20246;-74
2021/07/08 23:05:19;;;;;;;22.33;12.23;;;;;;;17.08;75.20;100872.13;10305839;28;20250;-75
2021/07/08 23:10:22;;;;;;;21.20;11.38;;;;;;;16.77;75.78;100888.78;10304854;28;20676;-75
2021/07/08 23:15:27;;;;;;;20.20;12.40;;;;;;;16.74;76.69;100886.38;10305419;28;20242;-75
2021/07/08 23:20:29;;;;;;;21.33;12.88;;;;;;;16.61;77.16;100885.03;10312099;28;20621;-74
2021/07/08 23:25:32;;;;;;;20.13;13.70;;;;;;;16.67;77.35;100881.72;10313382;28;20238;-74